Etusivu
METAR-TAF:

METAR-TAF

Lentoasemat :

Mendoza, Argentiina

Leveyspiiri: 32-50S, Pituuspiiri: 068-47W, korkeus merenpinnasta: 705 m

Tämänhetkinen sää

Tämä raportti tehtiin 41 minuuttia sitten, kello 20.00 UTC
Tuuli 8 kn koillisesta
Lämpötila 19°C
Kosteus 34%
Ilmanpaine 1019 hPa
Näkyvyys 10 km tai enemmän
ei pilviä alle 1500 m:ssä eikä cumulonimbus-pilviä

METAR: SAME 152000Z 05008KT CAVOK 19/03 Q1019

Aika: 17:41 (20:41 UTC)

Sääennuste

Tämä raportti tehtiin 3 tuntia ja 41 minuuttia sitten, kello 17.00 UTC
Ennuste voimassa 15. päivästä klo 18 UTC - 16. päivään klo 18 UTC
Tuuli 5 kn koillisesta
Näkyvyys 10 km tai enemmän
ei pilviä alle 1500 m:ssä eikä cumulonimbus-pilviä

TAF: SAME 151700Z 1518/1618 05005KT CAVOK TX20/1520Z TN02/1610Z

Säähavainnot ja -ennusteet yli 4000 lentoasemalta (METAR- ja TAF-raportit).

Käytössä olevat sääasemat on merkitty karttaan keltaisilla ja punaisilla pisteillä.

Aseta hiiri pisteen päälle nähdäksesi sääaseman nimen.

Klikkaa sitten nähdäksesi säähavainnot ja -ennusteet.

Kartan vaihtaminen: klikkaa mustalla rastilla varustettuja vihreitä pisteitä, niin voit zoomata sisään; viivalla varustettua vihreää pistettä, niin voit zoomata ulos tai vihreitä nuolia, niin pääset viereisille kartoille.


METAR-TAF: